x

West Washington - 300nm West Of Aberdeen, Wa (46005) Wave Buoy

2:50am - Tue 28th Jul 2015 All times are UTC.

  • Sig Wave height 5.2ft
  • Swell Direction
  • Peak Period 10s
  • Average Period 7s
  • Wind
    9mph, 11mph gusts
  • Sea Temp 64°f
  • Air Temp 63°f
  • Sea Pressure 1026.9mb

More Historic Weather Station data

Upgrade to MSW Pro to gain access to the past 30 days of data for over 8000 Wavebouys and Weather Stations around the globe.

Join Pro

Comparision Forecast

View Surf forecast
   
Tue 07/28 2:50am 5ft 10s 7s 9 11 mph 1026.9mb 64f 63f
1:50am 4.5ft 9s 7s 9 11 mph 1026.9mb 64f 63f
12:50am 4.5ft 19s 7s 11 13 mph 1026.9mb 64f 63f
Mon 07/27 11:50pm 4.5ft 17s 7s 9
mph
1027.1mb 64f 63f
10:50pm 4.5ft 17s 7s 11 16 mph 1027mb 64f 63f
9:50pm 4.5ft 8s 6s 11 13 mph 1027mb 64f 63f
8:50pm 4ft 17s 6s 13 16 mph 1026.4mb 64f 63f
7:50pm 4.5ft 8s 6s 11 13 mph 1026.7mb 64f 63f
6:50pm 4.5ft 8s 7s 11 13 mph 1026.5mb 64f 63f
5:50pm 4ft 17s 7s 7 9 mph 1026.4mb 64f 63f
4:50pm 4ft 8s 6s 9 11 mph 1026.1mb 64f 63f
3:50pm 4ft 8s 7s 11 13 mph 1025.8mb 64f 62f
2:50pm 4ft 19s 7s 9 11 mph 1025.6mb 64f 63f
1:50pm 4.5ft 8s 7s 9 11 mph 1025.3mb 64f 63f
12:50pm 4ft 17s 7s 9 11 mph 1025.3mb 64f 62f
11:50am 4.5ft 9s  -  9 11 mph 1025mb 64f 62f
10:50am 4.5ft 9s 7s 9 11 mph 1024.8mb 64f 62f
9:50am 4.5ft 9s 6s 9 11 mph 1024.9mb 64f 62f
8:50am 4.5ft 9s 6s 9 11 mph 1024.8mb 64f 62f
7:50am 4.5ft 8s 6s 9 11 mph 1024.9mb 64f 63f
6:50am 4.5ft 9s 6s 9 11 mph 1024.9mb 64f 63f
5:50am 4.5ft 9s 6s 11 13 mph 1024.7mb 64f 63f
4:50am 5ft 9s 7s 13
mph
1024.3mb 64f 63f
3:50am 5ft 10s 7s 11 13 mph 1024mb 64f 63f
2:50am 4.5ft 9s 6s 11 13 mph 1023.8mb 64f 63f
1:50am 5ft 10s 7s 11 13 mph 1023.7mb 64f 63f
12:50am 4.5ft 9s 7s 11 13 mph 1023.7mb 64f 63f
Sun 07/26 11:50pm 5ft 8s 7s 11 13 mph 1023.4mb 64f 63f
10:50pm 5ft 10s 7s 9 13 mph 1023.3mb 64f 63f
9:50pm 5ft 9s 7s 11 13 mph 1023.1mb 64f 63f
8:50pm 5.5ft 9s 7s 9 11 mph 1022.9mb 64f 62f
7:50pm 6ft 9s 7s 13
mph
1022.6mb 64f 62f
6:50pm 5ft 9s 7s 13 16 mph 1022.1mb 64f 62f
5:50pm 5.5ft 10s 7s 13 16 mph 1021.5mb 64f 62f
4:50pm 5ft 10s 7s 13 16 mph 1021mb 64f 62f
3:50pm 6ft 9s 7s 13 16 mph 1020.5mb 64f 62f
2:50pm 5.5ft 10s 7s 13 16 mph 1020.1mb 64f 62f
1:50pm 6ft 10s 7s 11 16 mph 1019.6mb 64f 62f
12:50pm 6ft 11s 7s 16 18 mph 1019.3mb 64f 61f
11:50am 6ft 10s 7s 11 16 mph 1018.8mb 64f 60f
10:50am 6ft 10s 7s 9 11 mph 1018.8mb 64f 61f
9:50am 6ft 10s 7s 11 13 mph 1018.9mb 64f 61f
8:50am 6ft 11s 7s 9 11 mph 1019.1mb 64f 60f
7:50am 7ft 11s 8s 9 11 mph 1019.1mb 64f 61f
6:50am 7ft 11s 7s 11 16 mph 1019.2mb 64f 60f
5:50am 7ft 10s 7s 11 13 mph 1019.2mb 64f 61f
4:50am 7ft 11s 7s 9 13 mph 1019mb 64f 61f
3:50am 7.5ft 10s 8s 9 11 mph 1019mb 64f 60f
2:50am 8ft 11s 8s 11 13 mph 1019.1mb 64f 62f
1:50am 7.5ft 11s 8s 11 13 mph 1019.1mb 64f 63f
12:50am 7.5ft 10s 8s 11 13 mph 1019.5mb 64f 62f
Sat 07/25 11:50pm 7.5ft 11s 7s 13 16 mph 1019.8mb 64f 62f
10:50pm 7.5ft 11s 8s 13 16 mph 1019.8mb 64f 63f
9:50pm 8ft 11s 8s 7
mph
1020mb 64f 61f
8:50pm 8ft 11s 8s 7
mph
1020.2mb 64f 61f
7:50pm 7.5ft 11s 7s 7 9 mph 1020.2mb 64f 61f
6:50pm 8ft 11s 8s 11 16 mph 1020mb 64f 61f
5:50pm 9ft 11s 8s 13 16 mph 1019.9mb 64f 61f
4:50pm 10ft 12s 8s 13 18 mph 1019.8mb 64f 61f
3:50pm 9.5ft 11s 8s 16 18 mph 1019.6mb 64f 61f
2:50pm 10ft 12s 8s 11 13 mph 1019.7mb 64f 61f
1:50pm 9.5ft 11s 8s 16 20 mph 1019.5mb 64f 60f
12:50pm 8.5ft 11s 8s 13 18 mph 1019.5mb 64f 60f
11:50am 8.5ft 11s 7s 16 22 mph 1019.8mb 64f 59f
10:50am 8ft 11s 7s 16 20 mph 1019.8mb 64f 62f
9:50am 7ft 11s 7s 22 27 mph 1019.8mb 64f 59f
8:50am 7ft 12s 7s 18 20 mph 1019.8mb 64f 61f
7:50am 6.5ft 10s 7s 11 13 mph 1020.3mb 64f 61f
6:50am 7ft 11s 7s 13 18 mph 1020.3mb 64f 62f
5:50am 6ft 11s 6s 13 18 mph 1020.3mb 64f 62f
4:50am 7ft 10s 7s 7 9 mph 1020.1mb 64f 61f
3:50am 6.5ft 10s 6s 11 13 mph 1020mb 64f 61f
2:50am 6.5ft 10s 7s 16 20 mph 1019.8mb 64f 62f
1:50am 6.5ft 10s 7s 13 16 mph 1019.8mb 64f 62f
12:50am 6.5ft 8s 7s 13 16 mph 1019.9mb 64f 62f
Fri 07/24 11:50pm 6ft 11s 7s 13 18 mph 1020mb 64f 62f
10:50pm 6ft 8s 7s 11 16 mph 1020mb 64f 62f
9:50pm 6ft 8s 7s 9 13 mph 1020.2mb 64f 62f
8:50pm 5.5ft 8s 7s 11 13 mph 1020mb 64f 62f
7:50pm 5.5ft 9s 7s 11 13 mph 1019.7mb 64f 62f
6:50pm 5.5ft 8s 6s 13 16 mph 1019.4mb 64f 63f
5:50pm 5.5ft 9s 6s 11 16 mph 1019.2mb 64f 63f
4:50pm 5.5ft 8s 6s 11 13 mph 1019mb 64f 63f
3:50pm 5.5ft 8s 7s 11 16 mph 1018.5mb 64f 62f
2:50pm 5ft 9s 6s 7 11 mph 1018.3mb 64f 61f
1:50pm 5ft 8s 6s 16 18 mph 1017.8mb 64f 60f
12:50pm 5ft 8s 6s 13 16 mph 1017.6mb 64f 61f
11:50am 5ft 8s 6s 11 16 mph 1017.5mb 64f 63f
10:50am 4.5ft 8s 6s 13 18 mph 1017.5mb 64f 63f
9:50am 5ft 8s 6s 11 16 mph 1017.6mb 64f 63f
8:50am 4.5ft 8s 6s 13 16 mph 1017.7mb 64f 63f
7:50am 4.5ft 8s 6s 13 16 mph 1017.8mb 64f 63f
6:50am 4.5ft 8s 6s 13 16 mph 1017.8mb 64f 63f
5:50am 5ft 8s 6s 13 18 mph 1017.9mb 64f 63f
4:50am 5ft 8s 7s 11 13 mph 1017.6mb 65f 64f